Time;durP1;ratioP1;P1;durP2;ratioP2;P2;SDS_P1;SDS_P2;PMS_P1;PMS_P2;Temp;Humidity;BMP_temperature;BMP_pressure;BME280_temperature;BME280_humidity;BME280_pressure;Samples;Min_cycle;Max_cycle;Signal;HPM_P1;HPM_P2
2023/12/10 00:01:20;;;;;;;101.63;45.13;;;2.70;99.90;;;;;;5130815;27;20208;-67
2023/12/10 00:03:48;;;;;;;92.80;40.33;;;2.60;99.90;;;;;;5130362;27;20728;-67
2023/12/10 00:06:17;;;;;;;107.40;48.33;;;2.70;99.90;;;;;;5130493;27;20268;-64
2023/12/10 00:08:45;;;;;;;106.97;49.47;;;2.70;99.90;;;;;;5130689;27;20199;-66
2023/12/10 00:11:13;;;;;;;118.17;51.87;;;2.60;99.90;;;;;;5130587;27;20199;-66
2023/12/10 00:13:42;;;;;;;109.27;47.60;;;2.60;99.90;;;;;;5130752;27;20200;-63
2023/12/10 00:16:14;;;;;;;94.77;43.00;;;2.60;99.90;;;;;;5128615;27;20564;-67
2023/12/10 00:18:43;;;;;;;87.93;40.03;;;2.60;99.90;;;;;;5129302;27;20207;-69
2023/12/10 00:21:14;;;;;;;83.07;40.47;;;2.60;99.90;;;;;;5118734;27;20220;-66
2023/12/10 00:23:43;;;;;;;88.90;40.33;;;2.60;99.90;;;;;;5116219;27;20546;-70
2023/12/10 00:26:12;;;;;;;89.97;41.47;;;2.60;99.90;;;;;;5110782;27;20729;-68
2023/12/10 00:28:40;;;;;;;85.77;38.80;;;2.70;99.90;;;;;;5109898;28;20204;-65
2023/12/10 00:31:09;;;;;;;89.87;42.17;;;2.70;99.90;;;;;;5109529;28;20201;-69
2023/12/10 00:33:40;;;;;;;79.50;38.63;;;2.70;99.90;;;;;;5109893;28;20307;-69
2023/12/10 00:36:09;;;;;;;82.57;40.43;;;2.70;99.90;;;;;;5109953;28;20281;-69
2023/12/10 00:38:38;;;;;;;83.67;38.20;;;2.70;99.90;;;;;;5127020;27;20294;-69
2023/12/10 00:41:10;;;;;;;76.87;36.97;;;2.70;99.90;;;;;;5130705;27;20228;-68
2023/12/10 00:43:39;;;;;;;79.93;39.53;;;2.70;99.90;;;;;;5130571;27;20191;-66
2023/12/10 00:46:09;;;;;;;77.37;37.33;;;2.70;99.90;;;;;;5130421;27;20218;-69
2023/12/10 00:48:40;;;;;;;83.07;39.47;;;2.70;99.90;;;;;;5131007;27;20613;-66
2023/12/10 00:51:18;;;;;;;89.37;40.50;;;2.70;99.90;;;;;;5130596;27;20196;-66
2023/12/10 00:53:47;;;;;;;80.00;38.53;;;2.70;99.90;;;;;;5130170;28;20231;-67
2023/12/10 00:56:15;;;;;;;81.27;38.90;;;2.70;99.90;;;;;;5130103;28;20662;-68
2023/12/10 00:58:44;;;;;;;79.63;39.10;;;2.60;99.90;;;;;;5130132;28;20585;-68
2023/12/10 01:01:12;;;;;;;88.57;42.50;;;2.60;99.90;;;;;;5129866;28;20562;-64
2023/12/10 01:03:43;;;;;;;84.73;41.87;;;2.60;99.90;;;;;;5130016;28;20601;-69
2023/12/10 01:06:11;;;;;;;98.27;47.20;;;2.60;99.90;;;;;;5129868;28;20208;-66
2023/12/10 01:08:40;;;;;;;83.43;42.03;;;2.50;99.90;;;;;;5130250;28;20222;-62
2023/12/10 01:11:08;;;;;;;86.10;40.00;;;2.50;99.90;;;;;;5129901;28;20213;-64
2023/12/10 01:13:37;;;;;;;85.37;41.47;;;2.40;99.90;;;;;;5130034;27;20274;-68
2023/12/10 01:16:07;;;;;;;79.60;40.33;;;2.40;99.90;;;;;;5132997;27;20218;-66
2023/12/10 01:18:37;;;;;;;84.40;40.57;;;2.40;99.90;;;;;;5132553;27;20221;-68
2023/12/10 01:21:09;;;;;;;80.40;37.73;;;2.30;99.90;;;;;;5133773;27;20244;-64
2023/12/10 01:23:38;;;;;;;77.00;39.07;;;2.40;99.90;;;;;;5133825;27;20192;-69
2023/12/10 01:26:07;;;;;;;74.40;39.60;;;2.50;99.90;;;;;;5133803;27;20206;-68
2023/12/10 01:28:36;;;;;;;68.40;37.30;;;2.60;99.90;;;;;;5133827;27;20206;-65
2023/12/10 01:31:05;;;;;;;72.70;37.77;;;2.60;99.90;;;;;;5133326;27;20240;-67
2023/12/10 01:33:34;;;;;;;79.90;42.20;;;2.70;99.90;;;;;;5132720;27;20231;-68
2023/12/10 01:36:03;;;;;;;77.50;38.10;;;2.70;99.90;;;;;;5124294;27;20197;-68
2023/12/10 01:38:33;;;;;;;73.83;36.77;;;2.70;99.90;;;;;;5132338;27;20203;-66
2023/12/10 01:41:01;;;;;;;68.53;35.83;;;2.70;99.90;;;;;;5112992;28;20203;-65
2023/12/10 01:43:30;;;;;;;67.90;34.73;;;2.80;99.90;;;;;;5112985;28;20208;-69
2023/12/10 01:45:58;;;;;;;64.03;34.20;;;2.80;99.90;;;;;;5116730;27;20244;-65
2023/12/10 01:48:28;;;;;;;56.67;31.80;;;2.80;99.90;;;;;;5133286;27;20200;-69
2023/12/10 01:50:58;;;;;;;63.00;32.93;;;2.90;99.90;;;;;;5133183;27;20193;-67
2023/12/10 01:53:27;;;;;;;63.97;31.90;;;2.80;99.90;;;;;;5133286;27;20198;-66
2023/12/10 01:55:58;;;;;;;73.63;35.00;;;2.80;99.90;;;;;;5133162;27;20649;-68
2023/12/10 01:58:27;;;;;;;67.80;32.73;;;2.80;99.90;;;;;;5127020;27;20990;-64
2023/12/10 02:00:56;;;;;;;79.83;39.17;;;2.80;99.90;;;;;;5112227;28;20206;-68
2023/12/10 02:03:24;;;;;;;68.23;33.47;;;2.80;99.90;;;;;;5112620;28;20271;-62
2023/12/10 02:05:53;;;;;;;60.77;31.50;;;2.80;99.90;;;;;;5112313;28;20798;-65
2023/12/10 02:08:23;;;;;;;58.43;33.00;;;2.70;99.90;;;;;;5112586;28;20190;-67
2023/12/10 02:10:52;;;;;;;62.63;32.57;;;2.70;99.90;;;;;;5112588;28;20210;-63
2023/12/10 02:13:23;;;;;;;64.80;32.00;;;2.70;99.90;;;;;;5112431;28;20276;-64
2023/12/10 02:15:52;;;;;;;59.77;30.10;;;2.70;99.90;;;;;;5112070;28;20205;-63
2023/12/10 02:18:21;;;;;;;67.60;32.23;;;2.80;99.90;;;;;;5112458;28;20187;-66
2023/12/10 02:20:50;;;;;;;59.03;32.00;;;2.80;99.90;;;;;;5112245;28;20209;-67
2023/12/10 02:23:33;;;;;;;59.67;29.63;;;2.80;99.90;;;;;;5112073;28;20192;-68
2023/12/10 02:26:04;;;;;;;60.53;30.93;;;2.80;99.90;;;;;;5111738;28;20562;-64
2023/12/10 02:28:33;;;;;;;61.07;30.97;;;2.80;99.90;;;;;;5111968;28;20211;-58
2023/12/10 02:31:02;;;;;;;60.13;29.93;;;2.90;99.90;;;;;;5111960;28;20184;-67
2023/12/10 02:33:31;;;;;;;62.83;30.53;;;2.90;99.90;;;;;;5112196;28;20242;-67
2023/12/10 02:36:00;;;;;;;57.87;30.70;;;2.90;99.90;;;;;;5112289;28;20193;-62
2023/12/10 02:38:28;;;;;;;61.50;33.33;;;2.90;99.90;;;;;;5112004;28;20686;-68
2023/12/10 02:40:57;;;;;;;63.40;31.93;;;2.80;99.90;;;;;;5111919;28;20324;-66
2023/12/10 02:43:27;;;;;;;64.87;33.80;;;2.90;99.90;;;;;;5111995;28;20197;-68
2023/12/10 02:45:56;;;;;;;63.40;31.83;;;2.90;99.90;;;;;;5112152;28;20744;-67
2023/12/10 02:48:24;;;;;;;58.73;30.97;;;2.90;99.90;;;;;;5112106;28;20708;-61
2023/12/10 02:50:54;;;;;;;65.03;31.87;;;2.90;99.90;;;;;;5112087;28;20202;-66
2023/12/10 02:53:23;;;;;;;62.23;30.50;;;2.90;99.90;;;;;;5112082;28;20199;-67
2023/12/10 02:55:52;;;;;;;59.17;33.33;;;2.90;99.90;;;;;;5111898;28;20577;-67
2023/12/10 02:58:21;;;;;;;60.83;30.90;;;3.00;99.90;;;;;;5111642;28;20248;-68
2023/12/10 03:00:51;;;;;;;61.63;34.50;;;3.00;99.90;;;;;;5093049;28;20916;-67
2023/12/10 03:03:20;;;;;;;61.43;33.40;;;3.00;99.90;;;;;;5111863;28;20203;-68
2023/12/10 03:05:48;;;;;;;56.07;32.07;;;3.00;99.90;;;;;;5111648;28;20249;-66
2023/12/10 03:08:17;;;;;;;65.00;32.93;;;3.00;99.90;;;;;;5111486;28;20231;-67
2023/12/10 03:10:45;;;;;;;64.83;31.93;;;3.00;99.90;;;;;;5111365;28;20200;-66
2023/12/10 03:13:14;;;;;;;65.37;33.50;;;3.00;99.90;;;;;;5111195;28;20575;-68
2023/12/10 03:15:43;;;;;;;57.93;30.33;;;3.00;99.90;;;;;;5127676;27;20203;-67
2023/12/10 03:18:13;;;;;;;64.70;31.93;;;3.10;99.90;;;;;;5131916;27;20193;-65
2023/12/10 03:20:42;;;;;;;69.57;36.13;;;3.00;99.90;;;;;;5131888;27;20317;-67
2023/12/10 03:23:10;;;;;;;68.70;34.97;;;3.00;99.90;;;;;;5131658;27;20200;-66
2023/12/10 03:25:39;;;;;;;66.63;33.97;;;3.00;99.90;;;;;;5131614;27;20684;-64
2023/12/10 03:28:07;;;;;;;60.77;34.53;;;3.00;99.90;;;;;;5131666;27;20246;-69
2023/12/10 03:30:36;;;;;;;64.70;32.47;;;3.00;99.90;;;;;;5131393;27;20732;-63
2023/12/10 03:33:05;;;;;;;69.17;33.03;;;3.00;99.90;;;;;;5131387;27;20202;-68
2023/12/10 03:35:35;;;;;;;66.43;32.93;;;3.00;99.90;;;;;;5131515;27;20203;-68
2023/12/10 03:38:03;;;;;;;67.80;33.70;;;3.00;99.90;;;;;;5130624;27;20223;-67
2023/12/10 03:40:32;;;;;;;71.33;34.07;;;3.00;99.90;;;;;;5131023;27;20211;-68
2023/12/10 03:43:01;;;;;;;63.77;32.83;;;3.00;99.90;;;;;;5131189;27;20204;-67
2023/12/10 03:45:30;;;;;;;73.60;37.23;;;3.10;99.90;;;;;;5131130;27;20279;-67
2023/12/10 03:47:58;;;;;;;76.93;38.60;;;3.00;99.90;;;;;;5130868;27;20223;-64
2023/12/10 03:50:27;;;;;;;74.63;35.77;;;3.10;99.90;;;;;;5131201;27;20697;-65
2023/12/10 03:52:57;;;;;;;80.60;37.80;;;2.90;99.90;;;;;;5131194;27;20190;-64
2023/12/10 03:55:25;;;;;;;77.53;37.77;;;2.80;99.90;;;;;;5129765;27;20205;-66
2023/12/10 03:57:54;;;;;;;74.97;35.17;;;2.90;99.90;;;;;;5131095;27;20350;-68
2023/12/10 04:00:23;;;;;;;72.60;34.77;;;2.90;99.90;;;;;;5130949;27;20242;-67
2023/12/10 04:02:51;;;;;;;66.90;32.07;;;2.90;99.90;;;;;;5130805;27;20615;-67
2023/12/10 04:05:20;;;;;;;65.60;32.20;;;3.00;99.90;;;;;;5131022;27;20615;-67
2023/12/10 04:07:49;;;;;;;64.07;30.70;;;3.10;99.90;;;;;;5130513;27;20569;-67
2023/12/10 04:10:19;;;;;;;67.60;32.83;;;3.20;99.90;;;;;;5129987;27;20665;-64
2023/12/10 04:12:48;;;;;;;61.50;31.47;;;3.10;99.90;;;;;;5130548;27;20573;-67
2023/12/10 04:15:16;;;;;;;60.73;32.43;;;3.10;99.90;;;;;;5130628;27;20188;-68
2023/12/10 04:17:45;;;;;;;63.00;31.03;;;3.00;99.90;;;;;;5130224;27;20267;-61
2023/12/10 04:20:14;;;;;;;61.77;31.23;;;3.00;99.90;;;;;;5130389;27;20204;-66
2023/12/10 04:22:42;;;;;;;61.77;29.93;;;3.00;99.90;;;;;;5130369;27;20192;-65
2023/12/10 04:25:11;;;;;;;57.33;27.93;;;3.00;99.90;;;;;;5130465;27;20200;-67
2023/12/10 04:27:41;;;;;;;63.43;28.90;;;3.00;99.90;;;;;;5130147;27;20217;-66
2023/12/10 04:30:11;;;;;;;62.73;29.40;;;3.00;99.90;;;;;;5130343;27;20270;-67
2023/12/10 04:32:39;;;;;;;65.10;30.80;;;3.10;99.90;;;;;;5130116;27;20194;-67
2023/12/10 04:35:10;;;;;;;61.27;29.67;;;3.20;99.90;;;;;;5130253;27;20257;-67
2023/12/10 04:37:39;;;;;;;60.43;29.90;;;3.10;99.90;;;;;;5130486;27;20304;-66
2023/12/10 04:40:10;;;;;;;63.97;29.83;;;3.10;99.90;;;;;;5130357;27;20279;-65
2023/12/10 04:42:41;;;;;;;64.50;31.03;;;3.10;99.90;;;;;;5128450;27;20688;-65
2023/12/10 04:45:10;;;;;;;66.90;31.83;;;3.20;99.90;;;;;;5113455;27;20294;-68
2023/12/10 04:47:39;;;;;;;65.43;30.13;;;3.20;99.90;;;;;;5109465;28;20245;-66
2023/12/10 04:50:08;;;;;;;63.90;32.13;;;3.20;99.90;;;;;;5129934;27;20197;-66
2023/12/10 04:52:36;;;;;;;68.43;28.97;;;3.20;99.90;;;;;;5129968;27;20193;-66
2023/12/10 04:55:06;;;;;;;66.33;30.07;;;3.20;99.90;;;;;;5126971;28;20281;-66
2023/12/10 04:57:34;;;;;;;64.13;29.00;;;3.20;99.90;;;;;;5109413;28;20210;-66
2023/12/10 05:00:08;;;;;;;68.63;30.63;;;3.20;99.90;;;;;;5109329;28;20229;-67
2023/12/10 05:02:37;;;;;;;66.20;30.60;;;3.10;99.90;;;;;;5109138;28;20671;-67
2023/12/10 05:05:07;;;;;;;65.23;30.57;;;3.10;99.90;;;;;;5109401;28;20199;-67
2023/12/10 05:07:36;;;;;;;66.30;29.60;;;3.20;99.90;;;;;;5123151;28;20750;-63
2023/12/10 05:10:06;;;;;;;68.37;31.17;;;3.20;99.90;;;;;;5129454;28;20703;-64
2023/12/10 05:12:35;;;;;;;74.63;33.27;;;3.10;99.90;;;;;;5122863;28;20202;-66
2023/12/10 05:15:05;;;;;;;74.93;32.20;;;3.10;99.90;;;;;;5126770;28;20224;-65
2023/12/10 05:17:34;;;;;;;70.30;32.27;;;3.20;99.90;;;;;;5120894;27;20280;-64
2023/12/10 05:20:05;;;;;;;80.43;35.93;;;3.10;99.90;;;;;;5123896;28;20199;-66
2023/12/10 05:22:33;;;;;;;75.63;35.40;;;3.10;99.90;;;;;;5128932;28;20203;-66
2023/12/10 05:25:03;;;;;;;70.43;33.30;;;3.10;99.90;;;;;;5128971;28;20201;-66
2023/12/10 05:27:32;;;;;;;78.70;36.20;;;2.90;99.90;;;;;;5128801;28;20262;-64
2023/12/10 05:30:01;;;;;;;70.43;32.87;;;2.90;99.90;;;;;;5129142;28;20226;-64
2023/12/10 05:32:31;;;;;;;74.47;35.00;;;3.00;99.90;;;;;;5128503;28;20650;-65
2023/12/10 05:35:00;;;;;;;75.37;35.47;;;3.10;99.90;;;;;;5128715;28;20194;-65
2023/12/10 05:37:29;;;;;;;77.60;40.23;;;3.10;99.90;;;;;;5128746;28;20196;-67
2023/12/10 05:39:58;;;;;;;79.07;38.00;;;3.10;99.90;;;;;;5127617;28;20201;-66
2023/12/10 05:42:27;;;;;;;88.30;39.23;;;3.10;99.90;;;;;;5129898;28;20823;-65
2023/12/10 05:44:56;;;;;;;77.80;35.97;;;3.10;99.90;;;;;;5129915;27;20200;-65
2023/12/10 05:47:25;;;;;;;86.80;40.57;;;3.00;99.90;;;;;;5129410;28;20200;-67
2023/12/10 05:49:55;;;;;;;135.57;60.77;;;3.00;99.90;;;;;;5129731;28;20229;-66
2023/12/10 05:52:24;;;;;;;102.50;48.60;;;3.10;99.90;;;;;;5129560;28;20596;-65
2023/12/10 05:54:53;;;;;;;105.43;52.60;;;3.10;99.90;;;;;;5129762;27;20268;-64
2023/12/10 05:57:21;;;;;;;102.07;47.53;;;3.10;99.90;;;;;;5129905;27;20270;-64
2023/12/10 05:59:50;;;;;;;89.23;38.80;;;3.10;99.90;;;;;;5129400;27;20217;-66
2023/12/10 06:02:18;;;;;;;98.90;45.10;;;2.90;99.90;;;;;;5132580;27;20193;-65
2023/12/10 06:04:47;;;;;;;89.67;41.60;;;3.00;99.90;;;;;;5133457;27;20198;-68
2023/12/10 06:07:17;;;;;;;97.33;42.97;;;3.00;99.90;;;;;;5133208;27;20373;-65
2023/12/10 06:09:46;;;;;;;96.53;41.27;;;3.00;99.90;;;;;;5133221;27;20229;-67
2023/12/10 06:12:15;;;;;;;89.30;39.97;;;2.90;99.90;;;;;;5133122;27;20245;-66
2023/12/10 06:14:43;;;;;;;92.27;45.03;;;2.90;99.90;;;;;;5133219;27;20278;-61
2023/12/10 06:17:12;;;;;;;112.10;51.30;;;3.00;99.90;;;;;;5132802;27;20697;-67
2023/12/10 06:19:41;;;;;;;89.03;38.90;;;2.90;99.90;;;;;;5132832;27;20224;-66
2023/12/10 06:22:09;;;;;;;84.47;38.83;;;3.00;99.90;;;;;;5132542;27;20212;-66
2023/12/10 06:24:39;;;;;;;87.27;40.63;;;2.70;99.90;;;;;;5132634;27;20207;-67
2023/12/10 06:27:08;;;;;;;98.77;49.00;;;2.80;99.90;;;;;;5132723;27;20286;-65
2023/12/10 06:29:37;;;;;;;89.30;39.80;;;2.90;99.90;;;;;;5132583;27;20225;-66
2023/12/10 06:32:06;;;;;;;94.23;41.43;;;2.70;99.90;;;;;;5132323;27;20262;-67
2023/12/10 06:34:34;;;;;;;86.40;37.40;;;2.90;99.90;;;;;;5132569;27;20188;-65
2023/12/10 06:37:03;;;;;;;89.03;39.33;;;2.80;99.90;;;;;;5132648;27;20191;-66
2023/12/10 06:39:32;;;;;;;86.27;39.77;;;2.90;99.90;;;;;;5132554;27;20631;-66
2023/12/10 06:42:02;;;;;;;77.80;35.27;;;2.90;99.90;;;;;;5132725;27;20204;-66
2023/12/10 06:44:32;;;;;;;83.57;40.53;;;2.70;99.90;;;;;;5132476;27;20220;-66
2023/12/10 06:47:00;;;;;;;90.87;39.80;;;2.80;99.90;;;;;;5132377;27;20246;-65
2023/12/10 06:49:29;;;;;;;81.73;39.07;;;3.00;99.90;;;;;;5132426;27;20220;-65
2023/12/10 06:51:57;;;;;;;78.30;38.63;;;3.10;99.90;;;;;;5132479;27;20554;-65
2023/12/10 06:54:26;;;;;;;79.93;36.67;;;3.10;99.90;;;;;;5132553;27;20204;-66
2023/12/10 06:56:55;;;;;;;72.93;36.03;;;3.10;99.90;;;;;;5132575;27;20283;-66
2023/12/10 06:59:25;;;;;;;70.27;36.63;;;3.10;99.90;;;;;;5132186;27;20225;-66
2023/12/10 07:01:53;;;;;;;73.57;37.63;;;3.30;99.90;;;;;;5132182;27;20218;-66
2023/12/10 07:04:22;;;;;;;70.67;35.60;;;3.10;99.90;;;;;;5132106;27;20283;-67
2023/12/10 07:06:50;;;;;;;69.83;36.50;;;3.00;99.90;;;;;;5132269;27;20318;-67
2023/12/10 07:09:19;;;;;;;66.90;35.00;;;3.20;99.90;;;;;;5132044;27;20300;-65
2023/12/10 07:11:48;;;;;;;65.97;33.67;;;3.20;99.90;;;;;;5131452;27;20313;-66
2023/12/10 07:14:16;;;;;;;68.17;34.97;;;3.00;99.90;;;;;;5131428;27;20197;-64
2023/12/10 07:16:46;;;;;;;63.37;32.93;;;3.00;99.90;;;;;;5132014;27;20254;-61
2023/12/10 07:19:15;;;;;;;60.80;34.30;;;2.90;99.90;;;;;;5131751;27;20677;-66
2023/12/10 07:21:43;;;;;;;73.33;34.97;;;2.70;99.90;;;;;;5132035;27;20274;-63
2023/12/10 07:24:12;;;;;;;60.57;33.03;;;2.70;99.90;;;;;;5131853;27;20201;-67
2023/12/10 07:26:41;;;;;;;60.80;32.73;;;2.60;99.90;;;;;;5131542;27;20220;-66
2023/12/10 07:29:09;;;;;;;55.73;30.63;;;2.70;99.90;;;;;;5131583;27;20223;-65
2023/12/10 07:31:38;;;;;;;63.00;33.13;;;2.60;99.90;;;;;;5131532;27;20603;-66
2023/12/10 07:34:08;;;;;;;58.33;32.50;;;2.50;99.90;;;;;;5131530;27;20197;-66
2023/12/10 07:36:37;;;;;;;60.47;33.03;;;2.60;99.90;;;;;;5131515;27;20295;-64
2023/12/10 07:39:09;;;;;;;52.53;30.93;;;2.80;99.90;;;;;;5131628;27;20671;-66
2023/12/10 07:41:38;;;;;;;62.23;33.80;;;2.90;99.90;;;;;;5131402;27;20287;-65
2023/12/10 07:44:07;;;;;;;60.83;33.67;;;3.00;99.90;;;;;;5131537;27;20579;-64
2023/12/10 07:46:35;;;;;;;62.77;35.40;;;3.10;99.90;;;;;;5131117;27;20212;-64
2023/12/10 07:49:04;;;;;;;55.97;32.83;;;3.30;99.90;;;;;;5130995;27;20746;-63
2023/12/10 07:51:34;;;;;;;58.77;34.77;;;3.30;99.90;;;;;;5131208;27;20212;-60
2023/12/10 07:54:02;;;;;;;58.30;33.73;;;3.30;99.90;;;;;;5130935;27;20201;-65
2023/12/10 07:56:31;;;;;;;60.20;33.60;;;3.10;99.90;;;;;;5131118;27;20188;-64
2023/12/10 07:59:00;;;;;;;60.07;34.60;;;3.20;99.90;;;;;;5130656;27;20239;-64
2023/12/10 08:01:28;;;;;;;61.53;32.97;;;3.30;99.90;;;;;;5130881;27;20220;-65
2023/12/10 08:03:57;;;;;;;63.00;37.40;;;3.20;99.90;;;;;;5130771;27;20201;-64
2023/12/10 08:06:26;;;;;;;67.23;36.63;;;3.10;99.90;;;;;;5130916;27;20348;-68
2023/12/10 08:08:56;;;;;;;67.23;35.80;;;3.10;99.90;;;;;;5130851;27;20215;-60
2023/12/10 08:11:24;;;;;;;59.93;33.63;;;3.10;99.90;;;;;;5130945;27;20220;-61
2023/12/10 08:13:53;;;;;;;59.67;34.63;;;3.10;99.90;;;;;;5130977;27;20276;-63
2023/12/10 08:16:21;;;;;;;53.47;31.37;;;3.00;99.90;;;;;;5130840;27;20278;-64
2023/12/10 08:18:51;;;;;;;60.10;33.17;;;2.90;99.90;;;;;;5130855;27;20672;-65
2023/12/10 08:21:20;;;;;;;62.37;34.43;;;3.00;99.90;;;;;;5130813;27;20273;-67
2023/12/10 08:23:49;;;;;;;52.73;33.37;;;3.10;99.90;;;;;;5130492;27;20305;-65
2023/12/10 08:26:21;;;;;;;49.90;30.63;;;3.20;99.90;;;;;;5130854;27;20223;-63
2023/12/10 08:28:49;;;;;;;66.53;38.47;;;3.30;99.90;;;;;;5130490;27;20201;-65
2023/12/10 08:31:21;;;;;;;62.07;33.10;;;3.30;99.90;;;;;;5130174;27;20226;-63
2023/12/10 08:33:49;;;;;;;66.63;35.37;;;3.20;99.90;;;;;;5130269;27;20218;-66
2023/12/10 08:36:18;;;;;;;63.53;34.77;;;3.10;99.90;;;;;;5130208;27;20204;-64
2023/12/10 08:38:47;;;;;;;61.90;34.37;;;3.20;99.90;;;;;;5130250;27;20193;-63
2023/12/10 08:41:15;;;;;;;61.33;34.70;;;3.00;99.90;;;;;;5130460;27;20568;-66
2023/12/10 08:43:46;;;;;;;68.33;37.47;;;3.10;99.90;;;;;;5130027;27;20638;-66
2023/12/10 08:46:14;;;;;;;72.70;41.53;;;3.10;99.90;;;;;;5130351;27;20220;-65
2023/12/10 08:48:46;;;;;;;66.97;36.37;;;3.10;99.90;;;;;;5129742;27;20206;-64
2023/12/10 08:51:15;;;;;;;68.57;38.37;;;3.20;99.90;;;;;;5129949;27;20237;-64
2023/12/10 08:53:44;;;;;;;65.47;35.97;;;2.90;99.90;;;;;;5130026;27;20285;-65
2023/12/10 08:56:12;;;;;;;64.87;38.37;;;2.80;99.90;;;;;;5129891;27;20202;-65
2023/12/10 08:58:41;;;;;;;67.97;37.57;;;2.90;99.90;;;;;;5129643;28;20859;-65
2023/12/10 09:01:12;;;;;;;68.30;37.83;;;3.10;99.90;;;;;;5129780;28;20548;-64
2023/12/10 09:03:42;;;;;;;65.93;38.17;;;3.10;99.90;;;;;;5129635;28;20266;-65
2023/12/10 09:06:11;;;;;;;74.60;38.50;;;3.10;99.90;;;;;;5129900;27;20574;-65
2023/12/10 09:08:40;;;;;;;66.10;36.83;;;3.20;99.90;;;;;;5129702;27;20559;-66
2023/12/10 09:11:08;;;;;;;73.43;38.73;;;3.20;99.90;;;;;;5129704;28;20241;-66
2023/12/10 09:13:37;;;;;;;68.97;37.43;;;3.30;99.90;;;;;;5129772;28;20667;-63
2023/12/10 09:16:06;;;;;;;74.50;39.13;;;3.30;99.90;;;;;;5129822;27;20195;-62
2023/12/10 09:18:36;;;;;;;72.37;38.10;;;3.20;99.90;;;;;;5129710;27;20235;-60
2023/12/10 09:21:07;;;;;;;82.07;43.97;;;3.30;99.90;;;;;;5129729;28;20208;-60
2023/12/10 09:23:36;;;;;;;79.60;44.47;;;3.50;99.90;;;;;;5129730;28;20204;-66
2023/12/10 09:26:05;;;;;;;70.60;39.03;;;3.50;99.90;;;;;;5129810;27;20208;-61
2023/12/10 09:28:33;;;;;;;76.17;41.23;;;3.40;99.90;;;;;;5129672;27;20248;-66
2023/12/10 09:31:02;;;;;;;81.70;43.53;;;3.40;99.90;;;;;;5129494;28;20217;-62
2023/12/10 09:33:31;;;;;;;109.47;52.97;;;3.50;99.90;;;;;;5129459;27;20201;-66
2023/12/10 09:36:01;;;;;;;131.47;61.20;;;3.40;99.90;;;;;;5131076;27;20204;-66
2023/12/10 09:38:29;;;;;;;107.07;53.23;;;3.50;99.90;;;;;;5133496;27;20190;-61
2023/12/10 09:40:58;;;;;;;120.50;64.30;;;3.40;99.90;;;;;;5133965;27;20206;-65
2023/12/10 09:43:27;;;;;;;113.20;58.57;;;3.60;99.90;;;;;;5133573;27;20287;-63
2023/12/10 09:45:55;;;;;;;78.27;43.27;;;3.70;99.90;;;;;;5133765;27;20667;-64
2023/12/10 09:48:24;;;;;;;70.47;39.50;;;3.50;99.90;;;;;;5133358;27;20666;-59
2023/12/10 09:50:53;;;;;;;72.03;38.80;;;3.30;99.90;;;;;;5133398;27;20217;-61
2023/12/10 09:53:23;;;;;;;74.50;42.20;;;3.40;99.90;;;;;;5133501;27;20207;-61
2023/12/10 09:55:52;;;;;;;82.23;41.13;;;3.30;99.90;;;;;;5133049;27;20206;-64
2023/12/10 09:58:21;;;;;;;91.87;46.07;;;3.20;99.90;;;;;;5133043;27;20317;-65
2023/12/10 10:00:50;;;;;;;68.73;39.47;;;3.40;99.90;;;;;;5133199;27;20738;-65
2023/12/10 10:03:20;;;;;;;77.43;42.23;;;3.30;99.90;;;;;;5133093;27;20355;-63
2023/12/10 10:05:49;;;;;;;70.67;38.43;;;3.40;99.90;;;;;;5133100;27;20565;-65
2023/12/10 10:08:17;;;;;;;73.57;41.80;;;3.30;99.90;;;;;;5133040;27;20221;-60
2023/12/10 10:10:48;;;;;;;80.00;43.07;;;3.30;99.90;;;;;;5131492;27;20312;-62
2023/12/10 10:13:17;;;;;;;81.17;43.37;;;3.40;99.90;;;;;;5133006;27;20198;-59
2023/12/10 10:15:45;;;;;;;79.70;41.90;;;3.30;99.90;;;;;;5133052;27;20193;-61
2023/12/10 10:18:14;;;;;;;72.87;40.43;;;3.40;99.90;;;;;;5132886;27;20213;-62
2023/12/10 10:20:43;;;;;;;81.60;42.50;;;3.50;99.90;;;;;;5132679;27;20213;-65
2023/12/10 10:23:12;;;;;;;67.90;39.97;;;3.10;99.90;;;;;;5132775;27;20193;-62
2023/12/10 10:25:41;;;;;;;68.57;38.60;;;3.10;99.90;;;;;;5132637;27;20704;-65
2023/12/10 10:28:12;;;;;;;92.73;47.43;;;3.30;99.90;;;;;;5132767;27;20284;-66
2023/12/10 10:30:42;;;;;;;81.77;44.07;;;3.40;99.90;;;;;;5132543;27;20631;-60
2023/12/10 10:33:12;;;;;;;98.53;48.63;;;3.50;99.90;;;;;;5132416;27;20204;-63
2023/12/10 10:35:41;;;;;;;71.27;40.50;;;3.60;99.90;;;;;;5132440;27;20575;-65
2023/12/10 10:38:10;;;;;;;113.60;59.67;;;3.50;99.90;;;;;;5132621;27;20201;-65
2023/12/10 10:40:39;;;;;;;80.27;43.40;;;3.60;99.90;;;;;;5132772;27;20209;-64
2023/12/10 10:43:07;;;;;;;74.00;40.97;;;3.60;99.90;;;;;;5132786;27;20200;-64
2023/12/10 10:45:37;;;;;;;75.90;40.93;;;3.60;99.90;;;;;;5132369;27;20293;-63
2023/12/10 10:48:06;;;;;;;73.30;42.20;;;3.60;99.90;;;;;;5131940;27;20293;-65
2023/12/10 10:50:37;;;;;;;74.27;39.97;;;3.50;99.90;;;;;;5131931;27;20184;-65
2023/12/10 10:53:08;;;;;;;82.07;44.37;;;3.30;99.90;;;;;;5130695;27;20854;-64
2023/12/10 10:55:37;;;;;;;78.23;42.60;;;3.40;99.90;;;;;;5131859;27;20312;-63
2023/12/10 10:58:32;;;;;;;90.47;50.57;;;3.50;99.90;;;;;;5131856;27;20522;-65
2023/12/10 11:01:02;;;;;;;74.07;41.53;;;3.70;99.90;;;;;;5048085;28;20306;-62
2023/12/10 11:03:31;;;;;;;75.40;43.67;;;3.50;99.90;;;;;;5048240;28;20673;-61
2023/12/10 11:06:03;;;;;;;73.03;42.97;;;3.50;99.90;;;;;;5047898;28;20204;-64
2023/12/10 11:08:35;;;;;;;76.60;44.53;;;3.60;99.90;;;;;;5048145;28;20258;-62
2023/12/10 11:11:03;;;;;;;75.33;41.87;;;3.50;99.90;;;;;;5048151;28;20235;-65
2023/12/10 11:13:45;;;;;;;121.13;65.23;;;3.50;99.90;;;;;;5047964;28;20205;-65
2023/12/10 11:16:16;;;;;;;93.07;48.80;;;3.60;99.90;;;;;;5048057;28;20209;-59
2023/12/10 11:18:54;;;;;;;71.20;41.80;;;3.60;99.90;;;;;;5047965;28;20192;-64
2023/12/10 11:21:23;;;;;;;73.97;43.03;;;3.50;99.90;;;;;;5048065;28;20591;-66
2023/12/10 11:23:52;;;;;;;85.03;46.80;;;3.50;99.90;;;;;;5047891;28;20254;-65
2023/12/10 11:26:21;;;;;;;71.87;41.70;;;3.50;99.90;;;;;;5048009;28;20455;-64
2023/12/10 11:28:50;;;;;;;76.73;43.83;;;3.40;99.90;;;;;;5047876;28;20195;-62
2023/12/10 11:31:21;;;;;;;70.23;40.60;;;3.40;99.90;;;;;;5047511;28;20224;-65
2023/12/10 11:33:50;;;;;;;70.17;41.67;;;3.30;99.90;;;;;;5048011;28;20980;-65
2023/12/10 11:36:20;;;;;;;68.03;40.00;;;3.10;99.90;;;;;;5068440;27;20204;-61
2023/12/10 11:39:01;;;;;;;78.13;42.50;;;3.10;99.90;;;;;;5131551;27;20286;-64
2023/12/10 11:41:31;;;;;;;68.77;39.00;;;3.20;99.90;;;;;;5131051;27;20216;-60
2023/12/10 11:43:59;;;;;;;82.57;46.00;;;3.40;99.90;;;;;;5129486;27;20201;-61
2023/12/10 11:46:29;;;;;;;77.50;44.03;;;3.50;99.90;;;;;;5131291;27;20260;-66
2023/12/10 11:49:01;;;;;;;65.80;38.40;;;3.70;99.90;;;;;;5130897;27;20221;-65
2023/12/10 11:51:30;;;;;;;71.20;39.07;;;3.40;99.90;;;;;;5130737;27;20734;-67
2023/12/10 11:53:59;;;;;;;71.97;40.50;;;3.00;99.90;;;;;;5130829;27;20215;-65
2023/12/10 11:56:27;;;;;;;70.33;41.40;;;2.90;99.90;;;;;;5131113;27;20190;-66
2023/12/10 11:58:56;;;;;;;82.23;46.10;;;3.20;99.90;;;;;;5130166;27;20324;-67
2023/12/10 12:01:25;;;;;;;81.10;44.47;;;3.30;99.90;;;;;;5130980;27;20288;-67
2023/12/10 12:03:56;;;;;;;67.93;40.33;;;3.30;99.90;;;;;;5130787;27;20545;-66
2023/12/10 12:06:38;;;;;;;71.77;41.50;;;3.30;99.90;;;;;;5130499;27;20216;-67
2023/12/10 12:09:07;;;;;;;74.87;42.50;;;3.30;99.90;;;;;;5130699;27;20607;-63
2023/12/10 12:11:35;;;;;;;72.57;41.10;;;3.20;99.90;;;;;;5130613;27;20686;-66
2023/12/10 12:14:04;;;;;;;73.13;41.20;;;3.30;99.90;;;;;;5130491;27;20570;-60
2023/12/10 12:16:39;;;;;;;78.07;43.33;;;3.60;99.90;;;;;;5130691;27;20694;-60
2023/12/10 12:19:09;;;;;;;72.30;40.97;;;3.60;99.90;;;;;;5130434;27;20211;-66
2023/12/10 12:21:38;;;;;;;73.57;42.97;;;3.80;99.90;;;;;;5130525;27;20193;-65
2023/12/10 12:24:07;;;;;;;71.73;41.33;;;3.70;99.90;;;;;;5130407;27;20190;-61
2023/12/10 12:26:38;;;;;;;69.50;41.97;;;3.40;99.90;;;;;;5130459;27;20202;-64
2023/12/10 12:29:07;;;;;;;75.83;41.60;;;3.20;99.90;;;;;;5130400;27;20193;-64
2023/12/10 12:31:38;;;;;;;71.07;40.80;;;3.30;99.90;;;;;;5130123;27;20280;-63
2023/12/10 12:34:20;;;;;;;76.67;42.93;;;3.50;99.90;;;;;;5130231;27;20265;-66
2023/12/10 12:36:49;;;;;;;72.03;41.97;;;3.40;99.90;;;;;;5130363;27;20258;-66
2023/12/10 12:39:18;;;;;;;75.43;43.43;;;3.20;99.90;;;;;;5130095;27;20292;-65
2023/12/10 12:41:47;;;;;;;75.43;43.57;;;3.30;99.90;;;;;;5130210;27;20227;-65
2023/12/10 12:44:15;;;;;;;68.63;41.10;;;3.50;99.90;;;;;;5130064;27;20684;-62
2023/12/10 12:46:44;;;;;;;69.33;40.20;;;3.50;99.90;;;;;;5130141;27;20204;-65